LIRNLIRH

Guest
Details From LIRN - Naples Capodichino
To LIRH - Frosinone
Flight Number -
Tags Generated
Created
Modified
Stats Distance 63 nm / 117 km
Max Altitude 0 ft / 0 m
Waypoints 2
Social Downloads 0
Likes 0
Share VATSIM

Download

Looking for another format? Having issues loading an existing format? Contact us
Advertisement - Login to hide

Notes

Generated

Route

LIRN LIRH

ID Type Via Altitude Latitude Longitude Leg Dist Tot Dist Heading (true) Name
O LIRN APT - 0 ft / 0 m 40.87979˚ 14.27754˚ - 0 nm - -
O LIRH APT - 0 ft / 0 m 41.63971˚ 13.30266˚ 63 nm 63 nm 316° / 316° -

Altitude Profile

Advertisement - Login to hide

LIRN

Details ICAO LIRN (NAP)
Name Naples Capodichino
Region Italy
Timezone Europe/Rome (UTC+2.0)
Stats Elevation 294 ft / 90 m (AMSL)
Location 40.886032° 14.290783°
Runways 1
Magnetic Variation 3.353° E

METAR

LIRN 231820Z 28006KT 240V330 9999 SCT020 BKN040 19/17 Q1015 NOSIG

Decode

TAF

TAF LIRN 231700Z 2318/2418 26012KT 9999 SCT018 SCT040 BECMG 2319/2321 VRB06KT BECMG 2408/2410 23010KT

Decode

Departure Runways

ID Width Length Bearing (true) Bearing (mag) Surface Threshold Offset Overrun Length
06 148 ft / 45 m 8,612 ft / 2,625 m 58.03° 54.68° Asphalt 1,309 ft / 399 m 0 ft / 0 m
24 148 ft / 45 m 8,612 ft / 2,625 m 238.05° 234.70° Asphalt 624 ft / 190 m 0 ft / 0 m

LIRH

Details ICAO LIRH
Name Frosinone
Region Italy
Timezone Europe/Rome (UTC+2.0)
Stats Elevation 645 ft / 197 m (AMSL)
Location 41.645832° 13.300000°
Runways 1
Magnetic Variation 3.223° E

METAR

LIRH 231755Z 30005KT 9999 BKN030 FEW035CB 20/14 Q1014

Decode

TAF

Not found

Destination Runways

ID Width Length Bearing (true) Bearing (mag) Surface Threshold Offset Overrun Length
16 131 ft / 40 m 4,698 ft / 1,432 m 162.00° 158.78° Dirt 0 ft / 0 m 0 ft / 0 m
34 131 ft / 40 m 4,698 ft / 1,432 m 342.00° 338.78° Dirt 0 ft / 0 m 0 ft / 0 m